Latest Weather Observations for Noarlunga

IDS60801

Issued at 9:01 pm CDT Thursday 19 January 2017 (issued every 30 minutes, with the page automatically refreshed every 10 minutes)

About weather observations | Map of weather stations | Latest weather observations for SA | Other Formats
Station Details ID: 023885 Name: NOARLUNGA Lat: -35.16 Lon: 138.51 Height: 55.0 m
Data from the previous 72 hours. | See also: Recent months at Noarlunga
Date/Time
CDT
Temp
°C
App
Temp
°C
Dew
Point
°C
Rel
Hum
%
Delta-T
°C
Wind Press
QNH
hPa
Press
MSL
hPa
Rain since
9am
mm
Dir  Spd
km/h
Gust
km/h
Spd
kts
Gust
kts
19/09:00pm 23.9 23.6 21.8 88 1.4 NNW 26 32 14 17 - - 1.0
19/08:39pm 27.5 26.1 19.6 62 5.1 NNW 26 65 14 35 - - 0.0
19/08:36pm 33.1 31.1 15.6 35 10.9 N 20 65 11 35 - - 0.0
19/08:30pm 34.3 32.6 12.6 27 13.0 NNE 13 19 7 10 - - 0.0
19/08:00pm 35.0 33.2 12.0 25 13.7 NE 13 22 7 12 - - 0.0
19/07:30pm 35.6 35.2 13.1 25 13.7 N 7 15 4 8 - - 0.0
19/07:00pm 36.8 36.4 14.1 25 14.1 WNW 9 15 5 8 - - 0.0
19/06:30pm 36.6 36.4 14.6 27 13.7 NNW 9 13 5 7 - - 0.0
19/06:00pm 37.2 37.3 15.6 27 13.7 NNW 9 15 5 8 - - 0.0
19/05:30pm 36.5 35.7 13.9 26 14.0 N 11 20 6 11 - - 0.0
19/05:00pm 37.0 36.5 14.9 27 13.9 N 11 20 6 11 - - 0.0
19/04:30pm 36.1 34.6 14.1 26 13.6 N 15 26 8 14 - - 0.0
19/04:00pm 35.8 33.6 12.1 24 14.2 NNW 15 26 8 14 - - 0.0
19/03:30pm 35.5 33.4 12.5 25 13.9 N 15 26 8 14 - - 0.0
19/03:00pm 35.1 34.0 12.1 25 13.8 NE 9 17 5 9 - - 0.0
19/02:30pm 34.5 32.7 11.0 24 13.8 NNE 11 20 6 11 - - 0.0
19/02:00pm 32.3 31.2 13.0 31 11.6 E 11 20 6 11 - - 0.0
19/01:30pm 29.7 27.4 11.7 33 10.5 E 15 24 8 13 - - 0.0
19/01:00pm 28.3 25.5 11.4 35 9.7 ESE 17 24 9 13 - - 0.0
19/12:30pm 28.4 24.9 11.0 34 9.9 ESE 20 26 11 14 - - 0.0
19/12:00pm 27.3 24.5 11.3 37 9.1 ESE 17 22 9 12 - - 0.0
19/11:30am 25.8 23.5 10.4 38 8.6 ESE 13 19 7 10 - - 0.0
19/11:00am 26.4 24.6 10.9 38 8.8 E 11 15 6 8 - - 0.0
19/10:30am 25.2 23.4 9.5 37 8.6 ENE 9 15 5 8 - - 0.0
19/10:00am 23.7 22.0 9.7 41 7.6 E 9 17 5 9 - - 0.0
19/09:30am 21.9 19.5 8.8 43 7.0 ENE 11 17 6 9 - - 0.0
19/09:00am 20.6 17.3 7.9 44 6.6 ENE 15 24 8 13 - - -
19/08:30am 19.9 15.1 7.3 44 6.4 ENE 22 35 12 19 - - -
19/08:00am 19.1 14.2 6.9 45 6.2 E 22 39 12 21 - - -
19/07:30am 18.6 13.6 6.4 45 6.1 E 22 37 12 20 - - -
19/07:00am 18.2 13.3 6.7 47 5.7 E 22 35 12 19 - - -
19/06:30am 17.7 12.0 6.6 48 5.5 E 26 41 14 22 - - -
19/06:00am 17.6 12.4 7.1 50 5.3 E 24 35 13 19 - - -
19/05:30am 17.6 11.8 7.9 53 4.9 E 28 41 15 22 - - -
19/05:00am 17.9 12.9 8.2 53 5.0 E 24 43 13 23 - - -
19/04:30am 17.8 12.7 9.2 57 4.5 E 26 43 14 23 - - -
19/04:00am 17.7 12.8 9.8 60 4.2 ESE 26 43 14 23 - - -
19/03:30am 17.6 12.5 10.5 63 3.8 ESE 28 48 15 26 - - -
19/03:21am 17.6 12.5 10.7 64 3.7 ESE 28 48 15 26 - - -
19/03:00am 17.5 13.3 11.1 66 3.5 ESE 24 37 13 20 - - 0.0
19/02:30am 17.4 14.7 11.7 69 3.1 ESE 17 32 9 17 - - -
19/02:00am 17.5 15.2 11.8 69 3.1 ESE 15 28 8 15 - - -
19/01:30am 17.4 16.3 12.1 71 2.9 E 9 22 5 12 - - -
19/01:00am 17.4 14.8 12.1 71 2.9 ESE 17 26 9 14 - - -
19/12:30am 17.2 14.0 11.9 71 2.9 ESE 20 35 11 19 - - -
19/12:00am 17.2 13.9 11.7 70 3.0 ESE 20 30 11 16 - - -
 
Date/Time
CDT
Temp
°C
App
Temp
°C
Dew
Point
°C
Rel
Hum
%
Delta-T
°C
Wind Press
QNH
hPa
Press
MSL
hPa
Rain since
9am
mm
Dir  Spd
km/h
Gust
km/h
Spd
kts
Gust
kts
18/11:30pm 17.3 14.5 11.3 68 3.3 ESE 17 30 9 16 - - -
18/11:00pm 17.3 13.2 11.3 68 3.3 ESE 24 37 13 20 - - -
18/10:30pm 17.4 13.6 11.2 67 3.4 ESE 22 35 12 19 - - -
18/10:00pm 17.5 12.5 10.9 65 3.6 SE 28 39 15 21 - - -
18/09:30pm 17.6 12.5 10.7 64 3.7 SE 28 41 15 22 - - -
18/09:00pm 17.8 12.0 10.7 63 3.8 SE 32 46 17 25 - - 0.0
18/08:30pm 18.1 13.0 10.7 62 4.0 SE 28 46 15 25 - - -
18/08:00pm 18.4 14.4 10.5 60 4.2 SE 22 35 12 19 - - -
18/07:30pm 19.2 14.9 10.7 58 4.6 SE 24 37 13 20 - - -
18/07:00pm 19.7 15.4 10.7 56 4.9 SE 24 35 13 19 - - -
18/06:30pm 20.1 15.0 10.5 54 5.2 SE 28 37 15 20 - - -
18/06:00pm 21.0 17.0 10.5 51 5.7 SE 22 33 12 18 - - -
18/05:30pm 21.1 15.5 10.0 49 6.0 SE 30 39 16 21 - - -
18/05:00pm 21.9 16.9 9.4 45 6.7 SE 26 35 14 19 - - -
18/04:30pm 22.6 17.6 9.4 43 7.1 SE 26 35 14 19 - - -
18/04:00pm 23.3 18.4 10.0 43 7.3 SE 26 35 14 19 - - -
18/03:30pm 23.1 18.6 10.2 44 7.1 SE 24 35 13 19 - - -
18/03:00pm 23.3 17.7 10.0 43 7.3 SSE 30 43 16 23 - - -
18/02:30pm 22.8 17.4 9.6 43 7.2 SE 28 41 15 22 - - -
18/02:00pm 23.5 18.5 10.9 45 7.0 ESE 28 43 15 23 - - -
18/01:30pm 23.3 18.7 11.0 46 6.9 SSE 26 39 14 21 - - -
18/01:00pm 22.4 18.5 10.9 48 6.4 SE 22 35 12 19 - - -
18/12:30pm 22.1 18.3 11.2 50 6.1 SE 22 32 12 17 - - -
18/10:00am 19.1 13.9 10.4 57 4.7 SE 28 41 15 22 - - 0.0
18/09:30am 18.4 13.3 10.5 60 4.2 SE 28 39 15 21 - - 0.0
18/09:00am 18.1 13.7 10.5 61 4.1 SE 24 41 13 22 - - 0.0
18/08:30am 17.6 13.6 10.5 63 3.8 SE 22 32 12 17 - - 0.0
18/08:00am 17.4 12.7 10.5 64 3.7 SE 26 41 14 22 - - 0.0
18/07:30am 17.2 12.8 11.7 70 3.0 SE 26 39 14 21 - - 0.0
18/07:00am 16.9 12.3 12.4 75 2.5 SSE 28 41 15 22 - - 0.0
18/06:30am 16.9 12.8 12.8 77 2.3 SSE 26 39 14 21 - - 0.0
18/06:00am 17.5 14.3 13.2 76 2.4 SSE 22 39 12 21 - - 0.0
18/05:30am 17.6 13.8 13.7 78 2.2 SE 26 39 14 21 - - 0.0
18/05:00am 17.6 14.9 13.5 77 2.3 SE 20 30 11 16 - - 0.0
18/04:30am 17.8 15.4 13.9 78 2.2 SE 19 32 10 17 - - 0.0
18/04:00am 17.9 15.5 13.8 77 2.3 SE 19 30 10 16 - - 0.0
18/03:30am 17.9 15.8 13.6 76 2.4 SE 17 24 9 13 - - 0.0
18/03:00am 18.1 16.0 13.6 75 2.6 ESE 17 26 9 14 - - 0.0
18/02:30am 18.3 16.2 13.6 74 2.7 SE 17 30 9 16 - - 0.0
18/02:00am 18.4 17.1 13.7 74 2.7 SSE 13 28 7 15 - - 0.0
18/01:30am 18.6 13.2 13.9 74 2.7 ESE 35 50 19 27 - - 0.0
18/01:00am 19.3 13.7 13.3 68 3.4 ESE 35 50 19 27 - - 0.0
18/12:30am 19.5 14.2 13.0 66 3.7 SE 33 54 18 29 - - 0.0
18/12:23am 19.6 13.8 12.8 65 3.8 SE 35 54 19 29 - - 0.0
18/12:00am 19.8 14.0 12.8 64 4.0 SE 35 54 19 29 - - 0.0
 
Date/Time
CDT
Temp
°C
App
Temp
°C
Dew
Point
°C
Rel
Hum
%
Delta-T
°C
Wind Press
QNH
hPa
Press
MSL
hPa
Rain since
9am
mm
Dir  Spd
km/h
Gust
km/h
Spd
kts
Gust
kts
17/11:50pm 19.9 14.2 13.1 65 3.9 SE 35 54 19 29 - - 0.0
17/11:30pm 19.9 14.2 13.1 65 3.9 SE 35 48 19 26 - - 0.0
17/11:00pm 20.4 14.7 12.9 62 4.3 SE 35 56 19 30 - - 0.0
17/10:30pm 19.5 13.6 13.7 69 3.3 ESE 37 56 20 30 - - 0.0
17/10:14pm 20.2 14.3 13.6 66 3.8 SE 37 56 20 30 - - 0.0
17/10:00pm 19.9 14.1 13.8 68 3.5 SE 37 54 20 29 - - 0.0
17/09:30pm 20.1 14.7 13.8 67 3.6 SE 35 57 19 31 - - 0.0
17/09:01pm 20.8 15.6 13.5 63 4.2 SSE 33 54 18 29 - - 0.0
17/09:00pm 20.9 15.7 13.4 62 4.3 SSE 33 43 18 23 - - 0.0
17/08:32pm 21.3 14.5 14.2 64 4.1 SSE 43 61 23 33 - - 0.0
17/08:30pm 21.4 14.4 14.3 64 4.2 SSE 44 61 24 33 - - 0.0
17/08:01pm 24.1 18.6 11.8 46 7.0 SSE 32 52 17 28 - - 0.0
17/08:00pm 24.3 18.8 11.9 45 7.1 SSE 32 44 17 24 - - 0.0
17/07:49pm 25.8 20.8 12.3 43 7.8 SSE 30 48 16 26 - - 0.0
17/07:30pm 28.0 22.1 11.1 35 9.7 SSE 33 46 18 25 - - 0.0
17/07:21pm 29.4 26.2 11.9 34 10.2 SSW 20 43 11 23 - - 0.0
17/07:00pm 33.3 31.1 8.0 21 14.1 SW 9 15 5 8 - - 0.0
17/06:30pm 33.2 29.4 4.0 16 15.3 SSW 13 22 7 12 - - 0.0
17/06:00pm 33.4 29.2 5.9 18 14.8 SW 17 24 9 13 - - 0.0
17/05:30pm 35.4 32.0 3.9 14 16.6 SW 11 22 6 12 - - 0.0
17/05:00pm 35.4 31.4 2.8 13 16.9 SW 13 24 7 13 - - 0.0
17/04:30pm 35.2 33.3 8.9 20 15.0 WSW 9 15 5 8 - - 0.0
17/04:00pm 37.1 34.3 5.2 14 17.3 W 9 15 5 8 - - 0.0
17/03:30pm 37.5 34.8 5.5 14 17.5 WNW 9 13 5 7 - - 0.0
17/03:00pm 37.3 33.7 3.1 12 18.0 WNW 11 17 6 9 - - 0.0
17/02:30pm 38.4 34.0 2.8 11 18.8 NW 15 22 8 12 - - 0.0
17/02:00pm 38.0 32.6 2.5 11 18.6 NNW 20 32 11 17 - - 0.0
17/01:30pm 37.6 31.4 2.1 11 18.4 N 24 33 13 18 - - 0.0
17/01:00pm 37.2 31.5 3.1 12 18.0 NNW 22 35 12 19 - - 0.0
17/12:30pm 36.8 31.5 2.8 12 17.8 N 20 30 11 16 - - 0.0
17/12:00pm 36.4 31.2 2.5 12 17.6 N 19 32 10 17 - - 0.0
17/11:30am 35.1 29.4 2.6 13 16.8 N 22 33 12 18 - - 0.0
17/11:00am 35.2 29.5 2.6 13 16.8 N 22 32 12 17 - - 0.0
17/10:30am 34.4 29.7 3.1 14 16.2 N 17 26 9 14 - - 0.0
17/10:00am 33.6 28.9 3.4 15 15.7 N 17 28 9 15 - - 0.0
17/09:30am 32.4 27.2 2.5 15 15.2 NNE 19 33 10 18 - - 0.0
17/09:00am 31.0 26.4 3.9 18 13.9 NNE 17 26 9 14 - - 0.0
17/08:30am 28.4 24.5 7.1 26 11.4 NNE 17 24 9 13 - - 0.0
17/08:00am 25.0 23.6 8.9 36 8.7 NE 6 9 3 5 - - 0.0
17/07:30am 23.9 22.8 9.9 41 7.7 NNE 6 11 3 6 - - 0.0
17/07:00am 22.0 20.9 8.5 42 7.1 ENE 4 7 2 4 - - 0.0
17/06:30am 21.7 20.8 7.9 41 7.2 ENE 2 4 1 2 - - 0.0
17/06:00am 22.5 21.0 6.7 36 8.1 ENE 4 7 2 4 - - 0.0
17/05:30am 22.1 19.7 7.1 38 7.7 NE 9 13 5 7 - - 0.0
17/05:00am 22.8 20.8 7.0 36 8.2 NE 7 11 4 6 - - 0.0
17/04:30am 21.9 20.4 7.0 38 7.7 E 4 6 2 3 - - 0.0
17/04:00am 21.8 20.3 6.9 38 7.6 SSE 4 6 2 3 - - 0.0
17/03:30am 24.4 21.5 4.7 28 9.9 ENE 9 11 5 6 - - 0.0
17/03:00am 24.3 21.5 5.1 29 9.7 ENE 9 11 5 6 - - 0.0
17/02:30am 23.4 21.3 5.8 32 8.9 ENE 6 7 3 4 - - 0.0
17/02:00am 24.6 22.2 5.4 29 9.8 ENE 7 11 4 6 - - 0.0
17/01:30am 24.9 23.2 5.7 29 9.8 ENE 4 7 2 4 - - 0.0
17/01:00am 25.9 22.9 6.0 28 10.3 NE 11 15 6 8 - - 0.0
17/12:30am 26.3 23.4 6.4 28 10.4 NE 11 15 6 8 - - 0.0
17/12:00am 26.3 23.5 6.9 29 10.2 E 11 19 6 10 - - 0.0
 
Date/Time
CDT
Temp
°C
App
Temp
°C
Dew
Point
°C
Rel
Hum
%
Delta-T
°C
Wind Press
QNH
hPa
Press
MSL
hPa
Rain since
9am
mm
Dir  Spd
km/h
Gust
km/h
Spd
kts
Gust
kts
16/11:30pm 24.6 22.2 6.8 32 9.3 ESE 9 13 5 7 - - 0.0
16/11:00pm 25.0 23.2 7.2 32 9.4 E 6 9 3 5 - - 0.0
16/10:30pm 25.7 23.1 6.3 29 10.1 ESE 9 13 5 7 - - 0.0
16/10:00pm 26.1 24.0 6.7 29 10.2 E 7 11 4 6 - - 0.0
16/09:30pm 27.2 25.1 6.6 27 10.9 ESE 7 9 4 5 - - 0.0

Other Formats:

Comma delimited format used in spreadsheet applications
http://www.bom.gov.au/fwo/IDS60801/IDS60801.94808.axf

JavaScript Object Notation format (JSON) in row-major order
http://www.bom.gov.au/fwo/IDS60801/IDS60801.94808.json